createdAt,value
2022-12-25T05:03:50.374Z,33.17
2022-12-25T05:06:17.553Z,27.45
2022-12-25T05:08:44.174Z,33.38
2022-12-25T05:11:13.691Z,33.28
2022-12-25T05:13:40.655Z,29.60
2022-12-25T05:16:13.039Z,27.05
2022-12-25T05:52:04.580Z,18.55
2022-12-25T05:54:31.218Z,20.33
2022-12-25T05:56:57.889Z,24.25
2022-12-25T06:30:09.221Z,18.33
2022-12-25T06:32:35.988Z,19.10
2022-12-25T06:35:02.797Z,25.73
2022-12-25T09:07:19.959Z,26.17
2022-12-25T09:13:27.188Z,34.97
2022-12-25T09:38:51.395Z,30.27
2022-12-25T09:41:30.928Z,25.05
2022-12-25T09:44:15.376Z,39.05
2022-12-25T09:46:45.498Z,22.90
2022-12-25T09:49:46.764Z,27.42
2022-12-25T09:59:56.986Z,24.15
2022-12-25T10:03:12.260Z,35.65
2022-12-25T10:05:53.408Z,29.97
2022-12-25T11:03:43.598Z,28.60
2022-12-25T11:06:31.825Z,28.80
2022-12-25T11:09:01.338Z,26.10
2022-12-25T11:11:29.875Z,30.80
2022-12-25T11:13:59.571Z,33.30
2022-12-25T11:16:28.305Z,25.92
2022-12-25T11:26:51.496Z,28.40
2022-12-25T11:29:27.114Z,29.30
2022-12-25T11:31:57.190Z,28.52
2022-12-25T13:36:14.361Z,31.05
2022-12-25T13:38:51.155Z,27.27
2022-12-25T13:41:45.693Z,31.25
2022-12-25T13:59:27.663Z,29.83
2022-12-25T14:01:54.941Z,34.55
2022-12-25T14:04:24.304Z,32.72
2022-12-25T14:06:52.245Z,32.03
2022-12-25T14:09:19.462Z,32.03
2022-12-25T14:23:16.073Z,39.20
2022-12-25T14:25:45.420Z,34.90
2022-12-25T14:28:27.034Z,37.67
2022-12-25T14:30:56.267Z,29.58
2022-12-25T14:33:25.743Z,32.15
2022-12-25T14:35:52.790Z,35.30
2022-12-25T14:38:39.577Z,33.50
2022-12-25T15:08:19.663Z,37.35
2022-12-25T15:10:59.627Z,39.83
2022-12-25T15:13:28.256Z,31.08
2022-12-25T15:16:12.038Z,35.55
2022-12-25T17:50:07.937Z,59.40
2022-12-25T17:52:34.609Z,87.10
2022-12-25T17:55:01.332Z,131.23
2022-12-25T17:57:28.049Z,104.45
2022-12-25T17:59:54.717Z,73.72
2022-12-25T18:02:21.606Z,50.72
2022-12-25T18:04:48.418Z,55.58
2022-12-25T18:11:16.111Z,48.17
2022-12-25T18:13:45.027Z,77.45
2022-12-25T18:16:13.106Z,69.63
2022-12-25T18:18:44.056Z,91.05
2022-12-25T21:21:58.461Z,41.55
2022-12-25T21:24:25.105Z,33.72
2022-12-25T21:26:51.755Z,57.38
2022-12-25T21:29:22.732Z,38.35
2022-12-25T21:32:08.026Z,35.55
2022-12-25T21:50:07.172Z,37.65
2022-12-25T21:55:01.888Z,33.92
2022-12-25T21:57:28.579Z,32.78
2022-12-25T22:12:15.329Z,20.80
2022-12-25T22:14:54.973Z,26.83
2022-12-25T22:17:47.043Z,29.73
2022-12-25T22:20:21.826Z,28.77
2022-12-25T22:25:16.527Z,33.40
2022-12-25T22:27:44.664Z,31.33
2022-12-25T22:30:17.838Z,29.73
2022-12-25T22:44:17.171Z,34.50
2022-12-25T22:46:44.883Z,37.35
2022-12-25T22:49:11.708Z,36.25
2022-12-25T22:51:38.542Z,36.25
2022-12-25T22:54:05.334Z,32.33
2022-12-25T22:56:32.087Z,29.67
2022-12-25T23:02:50.148Z,22.15
2022-12-25T23:05:16.953Z,28.50
2022-12-25T23:07:43.654Z,29.67
